createdAt,value
2019-01-18T00:00:59.416Z,99.90
2019-01-18T00:03:28.579Z,99.90
2019-01-18T00:05:57.515Z,99.90
2019-01-18T00:08:26.692Z,99.90
2019-01-18T00:10:55.628Z,99.90
2019-01-18T00:13:24.640Z,99.90
2019-01-18T00:15:53.695Z,99.90
2019-01-18T00:18:22.718Z,99.90
2019-01-18T00:20:51.800Z,99.90
2019-01-18T00:23:20.852Z,99.90
2019-01-18T00:25:49.800Z,99.90
2019-01-18T00:28:18.901Z,99.90
2019-01-18T00:30:47.947Z,99.90
2019-01-18T00:33:17.308Z,99.90
2019-01-18T00:36:05.908Z,99.90
2019-01-18T00:38:34.948Z,99.90
2019-01-18T00:41:03.960Z,99.90
2019-01-18T00:43:33.073Z,99.90
2019-01-18T00:46:02.156Z,99.90
2019-01-18T00:48:31.256Z,99.90
2019-01-18T00:51:00.527Z,99.90
2019-01-18T00:53:48.969Z,99.90
2019-01-18T00:56:18.064Z,99.90
2019-01-18T00:58:47.083Z,99.90
2019-01-18T01:01:16.732Z,99.90
2019-01-18T01:03:45.769Z,99.90
2019-01-18T01:06:14.813Z,99.90
2019-01-18T01:08:43.833Z,99.90
2019-01-18T01:11:12.916Z,99.90
2019-01-18T01:13:42.024Z,99.90
2019-01-18T01:16:11.048Z,99.90
2019-01-18T01:18:41.221Z,99.90
2019-01-18T01:21:10.372Z,99.90
2019-01-18T01:23:39.403Z,99.90
2019-01-18T01:26:08.540Z,99.90
2019-01-18T01:28:37.580Z,99.90
2019-01-18T01:31:06.667Z,99.90
2019-01-18T01:33:35.687Z,99.90
2019-01-18T01:36:04.744Z,99.90
2019-01-18T01:38:33.752Z,99.90
2019-01-18T01:41:02.768Z,99.90
2019-01-18T01:43:31.732Z,99.90
2019-01-18T01:46:02.664Z,99.90
2019-01-18T01:48:31.560Z,99.90
2019-01-18T01:51:00.603Z,99.90
2019-01-18T01:53:29.630Z,99.90
2019-01-18T01:55:58.656Z,99.90
2019-01-18T01:58:27.864Z,99.90
2019-01-18T02:00:57.300Z,99.90
2019-01-18T02:03:26.383Z,99.90
2019-01-18T02:05:55.667Z,99.90
2019-01-18T02:08:24.724Z,99.90
2019-01-18T02:10:53.680Z,99.90
2019-01-18T02:13:22.712Z,99.90
2019-01-18T02:15:51.772Z,99.90
2019-01-18T02:18:23.659Z,99.90
2019-01-18T02:20:52.635Z,99.90
2019-01-18T02:23:21.640Z,99.90
2019-01-18T02:25:50.691Z,99.90
2019-01-18T02:28:19.668Z,99.90
2019-01-18T02:30:48.756Z,99.90
2019-01-18T02:33:17.864Z,99.90
2019-01-18T02:35:46.975Z,99.90
2019-01-18T02:38:15.993Z,99.90
2019-01-18T02:40:45.025Z,99.90
2019-01-18T02:43:14.124Z,99.90
2019-01-18T02:45:43.221Z,99.90
2019-01-18T02:48:12.170Z,99.90
2019-01-18T02:50:41.220Z,99.90
2019-01-18T02:53:10.236Z,99.90
2019-01-18T02:55:39.281Z,99.90
2019-01-18T02:58:08.591Z,99.90
2019-01-18T03:00:37.607Z,99.90
2019-01-18T03:03:06.771Z,99.90
2019-01-18T03:05:35.737Z,99.90
2019-01-18T03:08:04.769Z,99.90
2019-01-18T03:10:33.789Z,99.90
2019-01-18T03:13:02.900Z,99.90
2019-01-18T03:15:31.844Z,99.90
2019-01-18T03:18:00.880Z,99.90
2019-01-18T03:20:29.859Z,99.90
2019-01-18T03:22:58.878Z,99.90
2019-01-18T03:25:29.324Z,99.90
2019-01-18T03:27:58.381Z,99.90
2019-01-18T03:30:27.392Z,99.90
2019-01-18T03:32:56.466Z,99.90
2019-01-18T03:35:25.660Z,99.90
2019-01-18T03:37:54.752Z,99.90
2019-01-18T03:40:23.770Z,99.90
2019-01-18T03:42:52.822Z,99.90
2019-01-18T03:45:21.838Z,99.90
2019-01-18T03:47:50.783Z,99.90
2019-01-18T03:50:21.971Z,99.90
2019-01-18T03:52:51.063Z,99.90
2019-01-18T03:55:20.178Z,99.90
2019-01-18T03:57:49.267Z,99.90
2019-01-18T04:00:26.260Z,99.90
2019-01-18T04:02:53.963Z,99.90
2019-01-18T04:05:22.972Z,99.90
2019-01-18T04:07:52.044Z,99.90
2019-01-18T04:10:21.180Z,99.90
2019-01-18T04:12:50.243Z,99.90
2019-01-18T04:15:20.252Z,99.90
2019-01-18T04:17:49.494Z,99.90
2019-01-18T04:20:18.821Z,99.90
2019-01-18T04:22:47.999Z,99.90
2019-01-18T04:25:22.362Z,99.90
2019-01-18T04:27:51.372Z,99.90
2019-01-18T04:30:22.482Z,99.90
2019-01-18T04:32:51.747Z,99.90
2019-01-18T04:35:21.012Z,99.90
2019-01-18T04:37:50.165Z,99.90
2019-01-18T04:40:21.329Z,99.90
2019-01-18T04:42:50.430Z,99.90
2019-01-18T04:45:19.532Z,99.90
2019-01-18T04:47:48.920Z,99.90
2019-01-18T04:50:19.873Z,99.90
2019-01-18T04:52:49.195Z,99.90
2019-01-18T04:55:18.472Z,99.90
2019-01-18T04:57:47.601Z,99.90
2019-01-18T05:00:23.304Z,99.90
2019-01-18T05:02:52.444Z,99.90
2019-01-18T05:05:21.484Z,99.90
2019-01-18T05:07:50.456Z,99.90
2019-01-18T05:10:20.501Z,99.90
2019-01-18T05:12:49.556Z,99.90
2019-01-18T05:15:20.993Z,99.90
2019-01-18T05:17:49.999Z,99.90
2019-01-18T05:20:18.944Z,99.90
2019-01-18T05:22:47.916Z,99.90
2019-01-18T05:25:16.961Z,99.90
2019-01-18T05:27:45.976Z,99.90
2019-01-18T05:30:17.793Z,99.90
2019-01-18T05:32:46.817Z,99.90
2019-01-18T05:35:15.931Z,99.90
2019-01-18T05:37:45.102Z,99.90
2019-01-18T05:40:15.448Z,99.90
2019-01-18T05:42:44.568Z,99.90
2019-01-18T05:45:15.929Z,99.90
2019-01-18T05:47:45.460Z,99.90
2019-01-18T05:50:16.736Z,99.90
2019-01-18T05:52:45.732Z,99.90
2019-01-18T05:55:14.848Z,99.90
2019-01-18T05:57:43.984Z,99.90
2019-01-18T06:00:28.396Z,99.90
2019-01-18T06:02:57.866Z,99.90
2019-01-18T06:05:27.952Z,99.90
2019-01-18T06:07:57.855Z,99.90
2019-01-18T06:10:28.006Z,99.90
2019-01-18T06:12:57.315Z,99.90
2019-01-18T06:15:26.432Z,99.90
2019-01-18T06:17:55.564Z,99.90
2019-01-18T06:20:24.557Z,99.90
2019-01-18T06:22:53.596Z,99.90
2019-01-18T06:25:22.623Z,99.90
2019-01-18T06:27:51.724Z,99.90
2019-01-18T06:30:20.721Z,99.90
2019-01-18T06:32:49.763Z,99.90
2019-01-18T06:35:19.990Z,99.90
2019-01-18T06:37:49.024Z,99.90
2019-01-18T06:40:18.089Z,99.90
2019-01-18T06:42:47.045Z,99.90
2019-01-18T06:45:17.696Z,99.90
2019-01-18T06:47:46.871Z,99.90
2019-01-18T06:50:17.455Z,99.90
2019-01-18T06:52:46.679Z,99.90
2019-01-18T06:55:15.696Z,99.90
2019-01-18T06:57:44.745Z,99.90
2019-01-18T07:00:28.648Z,99.90
2019-01-18T07:02:57.696Z,99.90
2019-01-18T07:05:26.705Z,99.90
2019-01-18T07:07:55.820Z,99.90
2019-01-18T07:10:24.900Z,99.90
2019-01-18T07:12:53.999Z,99.90
2019-01-18T07:15:23.163Z,99.90
2019-01-18T07:17:52.178Z,99.90
2019-01-18T07:20:21.369Z,99.90
2019-01-18T07:22:50.489Z,99.90
2019-01-18T07:25:25.290Z,99.90
2019-01-18T07:27:56.428Z,99.90
2019-01-18T07:30:28.500Z,99.90
2019-01-18T07:32:57.516Z,99.90
2019-01-18T07:35:26.567Z,99.90
2019-01-18T07:37:55.592Z,99.90
2019-01-18T07:40:26.055Z,99.90
2019-01-18T07:42:55.305Z,99.90
2019-01-18T07:45:26.584Z,99.90
2019-01-18T07:47:55.516Z,99.90
2019-01-18T07:50:24.632Z,99.90
2019-01-18T07:52:53.652Z,99.90
2019-01-18T07:55:22.812Z,99.90
2019-01-18T07:57:51.976Z,99.90
2019-01-18T08:00:23.220Z,99.90
2019-01-18T08:02:52.267Z,99.90
2019-01-18T08:05:23.237Z,99.90
2019-01-18T08:07:52.200Z,99.90
2019-01-18T08:10:21.372Z,99.90
2019-01-18T08:12:50.635Z,99.90
2019-01-18T08:15:23.021Z,99.90
2019-01-18T08:17:52.152Z,99.90
2019-01-18T08:20:23.197Z,99.90
2019-01-18T08:22:52.580Z,99.90
2019-01-18T08:25:21.667Z,99.90
2019-01-18T08:27:50.704Z,99.90
2019-01-18T08:30:25.075Z,99.90
2019-01-18T08:32:54.176Z,99.90
2019-01-18T08:35:42.536Z,99.90
2019-01-18T08:38:11.696Z,99.90
2019-01-18T08:40:42.239Z,99.90
2019-01-18T08:43:13.173Z,99.90
2019-01-18T08:45:54.418Z,99.90
2019-01-18T08:48:23.428Z,99.90
2019-01-18T08:50:53.270Z,99.90
2019-01-18T08:53:22.460Z,99.90
2019-01-18T08:55:51.704Z,99.90
2019-01-18T08:58:20.792Z,99.90
2019-01-18T09:00:49.837Z,99.90
2019-01-18T09:03:18.888Z,99.90
2019-01-18T09:05:48.072Z,99.90
2019-01-18T09:08:17.216Z,99.90
2019-01-18T09:10:46.637Z,99.90
2019-01-18T09:13:15.620Z,99.90
2019-01-18T09:15:44.749Z,99.90
2019-01-18T09:18:16.936Z,99.90
2019-01-18T09:20:45.896Z,99.90
2019-01-18T09:23:14.949Z,99.90
2019-01-18T09:25:44.103Z,99.90
2019-01-18T09:28:13.148Z,99.90
2019-01-18T09:30:42.112Z,99.90
2019-01-18T09:33:11.141Z,99.90
2019-01-18T09:35:40.963Z,99.90
2019-01-18T09:38:17.732Z,99.90
2019-01-18T09:40:43.432Z,99.90
2019-01-18T09:43:12.387Z,99.90
2019-01-18T09:45:41.380Z,99.90
2019-01-18T09:48:11.303Z,99.90
2019-01-18T09:50:40.319Z,99.90
2019-01-18T09:53:10.988Z,99.90
2019-01-18T09:55:40.013Z,99.90
2019-01-18T09:58:09.035Z,99.90
2019-01-18T10:00:39.396Z,99.90
2019-01-18T10:03:08.412Z,99.90
2019-01-18T10:05:37.504Z,99.90
2019-01-18T10:08:09.907Z,99.90
2019-01-18T10:10:39.411Z,99.90
2019-01-18T10:13:08.436Z,99.90
2019-01-18T10:15:47.932Z,99.90
2019-01-18T10:18:17.177Z,99.90
2019-01-18T10:20:46.200Z,99.90
2019-01-18T10:23:15.260Z,99.90
2019-01-18T10:25:44.268Z,99.90
2019-01-18T10:28:13.279Z,99.90
2019-01-18T10:30:42.389Z,99.90
2019-01-18T10:33:11.556Z,99.90
2019-01-18T10:35:40.576Z,99.90
2019-01-18T10:38:09.545Z,99.90
2019-01-18T10:40:38.559Z,99.90
2019-01-18T10:43:07.656Z,99.90
2019-01-18T10:45:36.867Z,99.90
2019-01-18T10:48:05.883Z,99.90
2019-01-18T10:50:35.027Z,99.90
2019-01-18T10:53:04.284Z,99.90
2019-01-18T10:55:33.215Z,99.90
2019-01-18T10:58:02.248Z,99.90
2019-01-18T11:00:37.236Z,99.90
2019-01-18T11:03:06.380Z,99.90
2019-01-18T11:05:35.565Z,99.90
2019-01-18T11:08:04.789Z,99.90
2019-01-18T11:10:34.171Z,99.90
2019-01-18T11:13:03.188Z,99.90
2019-01-18T11:15:36.052Z,99.90
2019-01-18T11:18:02.808Z,99.90
2019-01-18T11:20:42.019Z,99.90
2019-01-18T11:23:11.060Z,99.90
2019-01-18T11:25:40.100Z,99.90
2019-01-18T11:28:09.067Z,99.90
2019-01-18T11:30:38.060Z,99.90
2019-01-18T11:33:07.169Z,99.90
2019-01-18T11:35:36.220Z,99.90
2019-01-18T11:38:05.260Z,99.90
2019-01-18T11:40:34.319Z,99.90
2019-01-18T11:43:03.432Z,99.90
2019-01-18T11:45:32.558Z,99.90
2019-01-18T11:48:01.753Z,99.90
2019-01-18T11:50:30.683Z,99.90
2019-01-18T11:52:59.708Z,99.90
2019-01-18T11:55:28.745Z,99.90
2019-01-18T11:57:57.946Z,99.90
2019-01-18T12:00:27.620Z,99.90
2019-01-18T12:03:16.093Z,99.90
2019-01-18T12:05:45.124Z,99.70
2019-01-18T12:08:14.088Z,99.00
2019-01-18T12:10:43.123Z,97.80
2019-01-18T12:13:12.136Z,98.60
2019-01-18T12:15:41.136Z,98.60
2019-01-18T12:18:12.671Z,97.50
2019-01-18T12:20:41.687Z,96.60
2019-01-18T12:23:10.688Z,95.30
2019-01-18T12:25:39.731Z,95.50
2019-01-18T12:28:11.531Z,95.80
2019-01-18T12:30:40.628Z,95.90
2019-01-18T12:33:09.694Z,96.00
2019-01-18T12:35:38.727Z,96.30
2019-01-18T12:38:07.792Z,96.40
2019-01-18T12:40:36.967Z,96.70
2019-01-18T12:43:06.122Z,96.20
2019-01-18T12:45:35.131Z,96.80
2019-01-18T12:48:05.521Z,96.90
2019-01-18T12:50:36.982Z,96.80
2019-01-18T12:53:06.492Z,97.10
2019-01-18T12:55:35.609Z,97.10
2019-01-18T12:58:23.924Z,97.10
2019-01-18T13:00:52.972Z,97.00
2019-01-18T13:03:22.104Z,97.30
2019-01-18T13:05:52.900Z,96.90
2019-01-18T13:08:21.849Z,96.70
2019-01-18T13:10:50.860Z,97.20
2019-01-18T13:13:19.824Z,97.20
2019-01-18T13:16:28.199Z,97.30
2019-01-18T13:19:00.383Z,97.60
2019-01-18T13:21:29.359Z,97.70
2019-01-18T13:23:58.301Z,97.90
2019-01-18T13:26:27.560Z,97.60
2019-01-18T13:28:56.628Z,97.60
2019-01-18T13:31:25.632Z,97.60
2019-01-18T13:33:54.681Z,97.40
2019-01-18T13:36:23.620Z,97.00
2019-01-18T13:38:52.591Z,97.60
2019-01-18T13:41:21.640Z,97.40
2019-01-18T13:43:50.653Z,97.30
2019-01-18T13:46:19.744Z,97.10
2019-01-18T13:48:48.786Z,97.00
2019-01-18T13:51:17.820Z,97.00
2019-01-18T13:53:46.845Z,96.70
2019-01-18T13:56:15.795Z,97.30
2019-01-18T13:58:44.916Z,97.00
2019-01-18T14:01:13.952Z,97.20
2019-01-18T14:03:43.034Z,96.50
2019-01-18T14:06:12.044Z,96.40
2019-01-18T14:08:41.016Z,95.70
2019-01-18T14:11:14.296Z,95.50
2019-01-18T14:13:43.387Z,95.70
2019-01-18T14:16:12.432Z,96.00
2019-01-18T14:18:41.833Z,95.70
2019-01-18T14:21:10.767Z,95.40
2019-01-18T14:23:39.855Z,95.40
2019-01-18T14:26:08.941Z,95.00
2019-01-18T14:28:37.964Z,95.10
2019-01-18T14:31:07.197Z,95.20
2019-01-18T14:33:36.237Z,95.40
2019-01-18T14:36:05.337Z,95.70
2019-01-18T14:38:34.471Z,95.40
2019-01-18T14:41:03.488Z,94.90
2019-01-18T14:43:32.496Z,94.90
2019-01-18T14:46:01.560Z,94.60
2019-01-18T14:48:30.597Z,94.50
2019-01-18T14:50:59.612Z,94.50
2019-01-18T14:53:28.589Z,94.70
2019-01-18T14:55:57.860Z,95.00
2019-01-18T14:58:26.793Z,95.10
2019-01-18T15:00:56.360Z,95.40
2019-01-18T15:03:25.542Z,95.60
2019-01-18T15:05:55.090Z,95.90
2019-01-18T15:08:24.403Z,96.10
2019-01-18T15:10:53.606Z,95.80
2019-01-18T15:13:22.696Z,95.80
2019-01-18T15:15:51.844Z,96.10
2019-01-18T15:18:22.380Z,96.00
2019-01-18T15:20:51.412Z,96.20
2019-01-18T15:23:20.512Z,96.50
2019-01-18T15:25:49.542Z,96.00
2019-01-18T15:28:18.715Z,96.30
2019-01-18T15:30:47.857Z,96.30
2019-01-18T15:33:16.884Z,96.20
2019-01-18T15:35:45.916Z,96.10
2019-01-18T15:38:16.630Z,96.00
2019-01-18T15:40:50.062Z,96.10
2019-01-18T15:43:22.539Z,96.10
2019-01-18T15:45:52.644Z,96.40
2019-01-18T15:48:22.664Z,96.40
2019-01-18T15:50:51.717Z,96.80
2019-01-18T15:53:20.672Z,96.60
2019-01-18T15:55:49.756Z,96.80
2019-01-18T15:58:19.381Z,96.80
2019-01-18T16:00:52.524Z,96.90
2019-01-18T16:03:22.929Z,96.90
2019-01-18T16:05:52.024Z,97.10
2019-01-18T16:08:23.513Z,97.20
2019-01-18T16:11:05.641Z,97.40
2019-01-18T16:13:34.585Z,97.40
2019-01-18T16:16:28.344Z,97.40
2019-01-18T16:19:03.378Z,97.20
2019-01-18T16:21:33.372Z,97.20
2019-01-18T16:24:03.743Z,97.20
2019-01-18T16:26:32.828Z,97.10
2019-01-18T16:29:01.794Z,97.20
2019-01-18T16:31:31.012Z,97.10
2019-01-18T16:34:00.192Z,97.20
2019-01-18T16:36:29.352Z,97.20
2019-01-18T16:38:59.196Z,97.30
2019-01-18T16:41:32.698Z,97.30
2019-01-18T16:44:01.764Z,97.30
2019-01-18T16:46:30.872Z,97.30
2019-01-18T16:48:59.840Z,97.30
2019-01-18T16:51:29.012Z,97.30
2019-01-18T16:53:57.976Z,97.40
2019-01-18T16:56:46.269Z,97.40
2019-01-18T16:59:15.420Z,97.40
2019-01-18T17:01:44.448Z,97.40
2019-01-18T17:04:13.514Z,97.40
2019-01-18T17:06:43.224Z,97.50
2019-01-18T17:09:12.274Z,97.50
2019-01-18T17:11:41.504Z,97.60
2019-01-18T17:14:10.700Z,98.00
2019-01-18T17:16:44.894Z,97.70
2019-01-18T17:19:10.724Z,97.70
2019-01-18T17:21:39.836Z,97.80
2019-01-18T17:24:08.777Z,97.80
2019-01-18T17:26:37.844Z,97.90
2019-01-18T17:29:06.880Z,97.90
2019-01-18T17:31:35.918Z,98.00
2019-01-18T17:34:05.320Z,98.10
2019-01-18T17:36:51.067Z,98.20
2019-01-18T17:40:03.857Z,98.20
2019-01-18T17:43:05.645Z,98.20
2019-01-18T17:46:02.231Z,98.30
2019-01-18T17:48:59.008Z,98.30
2019-01-18T17:52:27.563Z,98.30
2019-01-18T17:55:38.116Z,98.40
2019-01-18T17:58:23.082Z,98.50
2019-01-18T18:01:11.147Z,98.40
2019-01-18T18:04:19.778Z,98.40
2019-01-18T18:07:18.336Z,98.50
2019-01-18T18:09:59.445Z,98.60
2019-01-18T18:13:07.976Z,98.70
2019-01-18T18:16:15.270Z,98.70
2019-01-18T18:19:25.362Z,98.70
2019-01-18T18:22:24.436Z,98.70
2019-01-18T18:25:37.429Z,98.80
2019-01-18T18:28:43.317Z,98.90
2019-01-18T18:31:27.707Z,98.80
2019-01-18T18:34:39.905Z,98.70
2019-01-18T18:37:50.912Z,98.70
2019-01-18T18:40:39.956Z,98.70
2019-01-18T18:43:33.121Z,98.70
2019-01-18T18:46:54.793Z,98.70
2019-01-18T18:49:38.489Z,98.60
2019-01-18T18:52:39.353Z,98.70
2019-01-18T18:55:43.974Z,98.70
2019-01-18T18:58:57.393Z,98.70
2019-01-18T19:01:57.576Z,98.70
2019-01-18T19:05:09.761Z,98.90
2019-01-18T19:08:29.352Z,98.90
2019-01-18T19:11:38.408Z,98.80
2019-01-18T19:14:49.779Z,98.70
2019-01-18T19:17:43.909Z,98.70
2019-01-18T19:20:42.783Z,98.80
2019-01-18T19:23:43.772Z,98.80
2019-01-18T19:27:02.853Z,98.80
2019-01-18T19:29:43.066Z,98.90
2019-01-18T19:32:30.034Z,98.90
2019-01-18T19:35:39.561Z,98.80
2019-01-18T19:38:33.804Z,98.70
2019-01-18T19:41:43.416Z,98.60
2019-01-18T19:44:20.435Z,98.60
2019-01-18T19:47:11.726Z,98.60
2019-01-18T19:50:20.468Z,98.70
2019-01-18T19:53:42.643Z,98.60
2019-01-18T19:56:49.981Z,98.50
2019-01-18T19:59:52.008Z,98.40
2019-01-18T20:02:50.328Z,98.60
2019-01-18T20:06:00.903Z,98.70
2019-01-18T20:08:59.516Z,98.70
2019-01-18T20:12:18.169Z,98.60
2019-01-18T20:15:24.113Z,98.60
2019-01-18T20:18:31.796Z,98.70
2019-01-18T20:21:32.860Z,98.90
2019-01-18T20:24:49.152Z,99.20
2019-01-18T20:28:11.538Z,99.30
2019-01-18T20:31:37.096Z,99.40
2019-01-18T20:34:53.306Z,99.30
2019-01-18T20:37:48.653Z,99.20
2019-01-18T20:40:59.140Z,99.00
2019-01-18T20:43:46.212Z,98.90
2019-01-18T20:46:41.463Z,98.90
2019-01-18T20:49:33.881Z,99.10
2019-01-18T20:52:35.008Z,99.10
2019-01-18T20:55:50.945Z,98.90
2019-01-18T20:59:02.589Z,98.90
2019-01-18T21:02:04.368Z,99.10
2019-01-18T21:05:11.888Z,99.30
2019-01-18T21:08:18.723Z,99.40
2019-01-18T21:11:37.941Z,99.40
2019-01-18T21:14:56.329Z,99.50
2019-01-18T21:17:43.675Z,99.40
2019-01-18T21:21:00.428Z,99.40
2019-01-18T21:23:59.896Z,99.20
2019-01-18T21:26:44.319Z,99.10
2019-01-18T21:29:45.856Z,99.00
2019-01-18T21:32:42.134Z,99.00
2019-01-18T21:36:04.757Z,98.90
2019-01-18T21:39:17.416Z,98.90
2019-01-18T21:42:18.447Z,99.00
2019-01-18T21:45:34.653Z,99.00
2019-01-18T21:48:23.368Z,99.00
2019-01-18T21:51:38.355Z,99.10
2019-01-18T21:54:41.655Z,99.40
2019-01-18T21:57:45.600Z,99.60
2019-01-18T22:00:51.716Z,99.70
2019-01-18T22:03:48.287Z,99.80
2019-01-18T22:06:44.984Z,99.80
2019-01-18T22:09:32.080Z,99.80
2019-01-18T22:12:56.004Z,99.80
2019-01-18T22:16:01.652Z,99.90
2019-01-18T22:19:18.020Z,99.90
2019-01-18T22:22:03.538Z,99.90
2019-01-18T22:25:11.663Z,99.90
2019-01-18T22:28:17.244Z,99.90
2019-01-18T22:31:11.009Z,99.90
2019-01-18T22:33:55.722Z,99.80
2019-01-18T22:36:43.576Z,99.90
2019-01-18T22:39:37.608Z,99.90
2019-01-18T22:42:20.236Z,99.90
2019-01-18T22:45:26.499Z,99.90
2019-01-18T22:48:26.729Z,99.90
2019-01-18T22:51:36.372Z,99.80
2019-01-18T22:55:05.004Z,99.90
2019-01-18T22:58:21.455Z,99.80
2019-01-18T23:01:31.372Z,99.80
2019-01-18T23:04:38.884Z,99.90
2019-01-18T23:08:01.375Z,99.90
2019-01-18T23:11:07.621Z,99.90
2019-01-18T23:14:30.021Z,99.90
2019-01-18T23:17:25.500Z,99.90
2019-01-18T23:20:38.715Z,99.90
2019-01-18T23:23:38.284Z,99.90
2019-01-18T23:26:40.180Z,99.90
2019-01-18T23:29:17.336Z,99.90
2019-01-18T23:32:28.376Z,99.90
2019-01-18T23:35:28.848Z,99.90
2019-01-18T23:38:46.304Z,99.90
2019-01-18T23:41:27.547Z,99.90
2019-01-18T23:44:29.548Z,99.90
2019-01-18T23:47:14.451Z,99.90
2019-01-18T23:50:11.596Z,99.90
2019-01-18T23:53:20.228Z,99.90
2019-01-18T23:56:30.661Z,99.90
2019-01-18T23:59:07.928Z,99.90
